Airfield :
LOGIN :

Register | Disclaimer

   EN    FR    IT 

 










Legend :    VFR   Marginal VFR   IFR   Intensive IFR   Very Intensive IFR
Visi :
Ceiling :
>= 8 km
>= 3000ft
5 to 8 km
1000 to 3000 ft
1500m to 5 km
500 to 1000 ft
800 to 1500m
200 to 500 ft
< 800m
< 200 ft
Symbols :   Thunderstorms  Fog  Heavy snow  Heavy precipitations  Wind > 20 kt
SIGMETs :     Misc.  Thunderstorms  Icing  Turbulence  Mountain Waves  Volcanic Ashes







- Airport Elevation : 726 ft
- IATA code : DIJ
- Download approach charts


LFSD - Dijon

CURRENT METAR :
  • 181330Z AUTO 30006KT 250V340 CAVOK 09/M01 Q1022

EXPIRED METARs :
  • 181300Z AUTO 30005KT 260V340 9999 FEW037 SCT044 OVC054 09/01 Q1022
  • 181230Z AUTO 25004KT 200V310 9999 OVC047 08/02 Q1022
  • 181200Z AUTO VRB02KT 9999 FEW031 BKN041 OVC050 08/02 Q1022
  • 181130Z AUTO 34004KT 320V020 9999 SCT029 BKN037 BKN048 08/02 Q1023
  • 181100Z AUTO 29007KT 260V320 9999 BKN027 BKN033 OVC056 07/02 Q1022

Expired Forecast.
No reported NOTAMs for that airfield.



MET'MAP, your aeronautical weather chart ! - Copyright ORBIFLY December 2007 - Disclaimer

ORBIFLY MET'MAP TEAM :

Programming & Development : Alexandra Zaïnal
Concept & Development : Baudouin d'Aumeries
Co-Development & Prog : Marc-Olivier Méhu
Technical & hardware support : Manuel Goepfert

Contact : metmap@orbifly.com




SOURCES & CREDITS :

   NOAA